Time;durP1;ratioP1;P1;durP2;ratioP2;P2;SDS_P1;SDS_P2;PMS_P1;PMS_P2;Temp;Humidity;BMP_temperature;BMP_pressure;BME280_temperature;BME280_humidity;BME280_pressure;Samples;Min_cycle;Max_cycle;Signal;HPM_P1;HPM_P2
2022/03/01 10:11:37;;;;;;;19.80;17.97;;;8.90;56.00;;;;;;5148566;27;20525;-74
2022/03/01 10:14:04;;;;;;;19.17;17.50;;;10.10;53.50;;;;;;5128122;28;20445;-75
2022/03/01 10:16:39;;;;;;;20.60;18.73;;;10.20;53.00;;;;;;5127815;28;20816;-75
2022/03/01 10:19:11;;;;;;;18.23;16.97;;;10.90;53.40;;;;;;5127978;28;20445;-75
2022/03/01 10:21:37;;;;;;;18.10;16.43;;;11.20;52.50;;;;;;5127658;28;20453;-74
2022/03/01 10:24:07;;;;;;;18.33;16.97;;;11.30;52.00;;;;;;5128054;28;20457;-74
2022/03/01 10:26:36;;;;;;;18.30;16.63;;;11.40;51.00;;;;;;5128102;27;20457;-74
2022/03/01 10:29:06;;;;;;;17.50;16.30;;;11.50;50.60;;;;;;5127882;28;20823;-75
2022/03/01 10:31:34;;;;;;;18.90;17.20;;;11.50;50.50;;;;;;5127883;28;20440;-74
2022/03/01 10:34:03;;;;;;;19.10;17.80;;;11.50;49.30;;;;;;5127749;28;20817;-75
2022/03/01 10:36:32;;;;;;;18.90;17.50;;;11.30;50.20;;;;;;5127564;28;20445;-74
2022/03/01 10:39:01;;;;;;;17.20;16.00;;;11.90;50.20;;;;;;5127413;28;20452;-75
2022/03/01 10:41:30;;;;;;;17.50;16.27;;;12.10;48.90;;;;;;5127496;28;20520;-74
2022/03/01 10:43:59;;;;;;;18.23;16.63;;;11.80;47.80;;;;;;5127493;27;20534;-76
2022/03/01 10:46:27;;;;;;;17.30;16.10;;;11.60;48.30;;;;;;5127478;28;20441;-75
2022/03/01 10:49:07;;;;;;;17.90;16.53;;;11.70;48.10;;;;;;5126995;28;20437;-75
2022/03/01 10:51:35;;;;;;;19.40;17.70;;;12.00;47.50;;;;;;5127621;28;20452;-75
2022/03/01 10:54:02;;;;;;;18.60;17.03;;;12.60;47.40;;;;;;5127318;28;20449;-75
2022/03/01 10:56:37;;;;;;;18.13;16.63;;;13.00;45.70;;;;;;5127005;28;20453;-75
2022/03/01 10:59:05;;;;;;;18.80;17.50;;;13.00;45.10;;;;;;5127264;27;20472;-75
2022/03/01 11:01:33;;;;;;;19.20;17.63;;;13.50;45.80;;;;;;5127222;28;20465;-75
2022/03/01 11:04:00;;;;;;;19.00;17.73;;;14.70;45.50;;;;;;5126761;28;20450;-75
2022/03/01 11:06:27;;;;;;;19.53;18.03;;;16.10;42.50;;;;;;5126904;28;20663;-76
2022/03/01 11:08:55;;;;;;;20.13;18.50;;;16.10;40.20;;;;;;5126963;28;20446;-75
2022/03/01 11:11:24;;;;;;;17.60;16.40;;;15.30;40.90;;;;;;5119996;28;20493;-75
2022/03/01 11:13:51;;;;;;;20.10;18.70;;;15.00;40.00;;;;;;5113300;28;20449;-75
2022/03/01 11:16:48;;;;;;;18.50;17.20;;;15.00;40.80;;;;;;5113244;28;20457;-75
2022/03/01 11:19:26;;;;;;;18.93;17.53;;;14.50;40.30;;;;;;5104274;27;20456;-76
2022/03/01 11:21:53;;;;;;;18.90;17.40;;;13.60;42.00;;;;;;5113180;28;20948;-75
2022/03/01 11:24:22;;;;;;;18.87;17.43;;;14.10;41.80;;;;;;5113819;28;20449;-75
2022/03/01 11:26:49;;;;;;;18.70;17.30;;;14.40;41.10;;;;;;5113307;28;20450;-75
2022/03/01 11:29:17;;;;;;;19.00;17.60;;;14.30;40.50;;;;;;5112869;28;20441;-74
2022/03/01 11:31:57;;;;;;;19.00;17.40;;;14.40;39.80;;;;;;5112824;28;20450;-74
2022/03/01 11:34:24;;;;;;;19.10;17.73;;;15.40;39.20;;;;;;5112742;28;20450;-73
2022/03/01 11:36:52;;;;;;;19.40;18.00;;;15.60;37.60;;;;;;5112897;28;20442;-73
2022/03/01 11:39:25;;;;;;;18.03;16.70;;;14.80;37.90;;;;;;5112895;28;20450;-75
2022/03/01 11:42:00;;;;;;;17.93;16.73;;;13.70;38.70;;;;;;5112721;28;20454;-74
2022/03/01 11:44:32;;;;;;;17.40;16.23;;;13.90;38.80;;;;;;5112505;28;20449;-74
2022/03/01 11:47:02;;;;;;;18.67;17.37;;;15.10;38.20;;;;;;5112522;28;20460;-74
2022/03/01 11:49:35;;;;;;;18.47;17.10;;;16.90;36.80;;;;;;5112262;28;21033;-74
2022/03/01 11:52:02;;;;;;;19.10;17.93;;;17.90;35.30;;;;;;5112787;28;20449;-74
2022/03/01 11:54:31;;;;;;;19.10;17.90;;;18.00;34.30;;;;;;5112553;28;20449;-73
2022/03/01 11:56:59;;;;;;;19.73;18.43;;;18.40;34.00;;;;;;5112279;28;20456;-76
2022/03/01 11:59:27;;;;;;;19.67;18.37;;;19.40;32.70;;;;;;5112254;28;20454;-75
2022/03/01 12:01:54;;;;;;;18.63;17.53;;;20.10;31.60;;;;;;5111986;28;20482;-75
2022/03/01 12:04:26;;;;;;;19.30;18.00;;;20.20;30.30;;;;;;5112404;28;20437;-75
2022/03/01 12:06:55;;;;;;;19.73;18.40;;;19.60;30.60;;;;;;5112162;28;20502;-75
2022/03/01 12:09:25;;;;;;;19.30;18.10;;;20.50;29.90;;;;;;5111875;28;20454;-75
2022/03/01 12:12:04;;;;;;;19.03;17.83;;;19.90;30.30;;;;;;5111939;28;20443;-76
2022/03/01 12:14:34;;;;;;;18.43;17.33;;;20.30;29.90;;;;;;5112218;28;20477;-76
2022/03/01 12:17:01;;;;;;;18.97;17.57;;;19.90;29.50;;;;;;5111985;28;20451;-75
2022/03/01 12:19:31;;;;;;;20.10;18.70;;;20.10;30.00;;;;;;5111775;28;20943;-77
2022/03/01 12:21:59;;;;;;;20.93;19.40;;;21.70;29.30;;;;;;5111809;28;20544;-75
2022/03/01 12:24:28;;;;;;;20.57;19.00;;;20.50;28.10;;;;;;5111067;28;20604;-76
2022/03/01 12:26:56;;;;;;;20.47;19.10;;;20.10;29.00;;;;;;5111782;28;20452;-75
2022/03/01 12:29:24;;;;;;;20.87;19.47;;;19.30;28.90;;;;;;5111615;28;20457;-76
2022/03/01 12:31:58;;;;;;;19.87;18.47;;;19.90;29.50;;;;;;5111818;28;20450;-73
2022/03/01 12:34:27;;;;;;;18.30;17.23;;;19.90;29.00;;;;;;5111653;28;20447;-76
2022/03/01 12:36:57;;;;;;;20.00;18.60;;;19.30;29.00;;;;;;5111401;28;20477;-74
2022/03/01 12:39:27;;;;;;;19.60;18.30;;;19.00;28.70;;;;;;5111543;28;20481;-76
2022/03/01 12:41:54;;;;;;;19.13;17.93;;;19.70;28.80;;;;;;5111388;28;20498;-75
2022/03/01 12:44:23;;;;;;;20.27;18.87;;;20.90;28.30;;;;;;5111329;28;20440;-75
2022/03/01 12:46:50;;;;;;;19.80;18.40;;;21.80;27.50;;;;;;5111374;28;20453;-76
2022/03/01 12:49:19;;;;;;;19.83;18.50;;;21.30;27.00;;;;;;5111598;28;20441;-75
2022/03/01 12:51:47;;;;;;;20.40;19.00;;;20.60;27.10;;;;;;5111159;28;20482;-75
2022/03/01 12:54:16;;;;;;;19.90;18.77;;;21.50;27.80;;;;;;5111104;28;20447;-75
2022/03/01 12:56:47;;;;;;;19.23;17.83;;;21.50;27.30;;;;;;5111090;28;20452;-75
2022/03/01 12:59:15;;;;;;;18.77;17.60;;;20.10;27.70;;;;;;5111109;28;20472;-75
2022/03/01 13:01:46;;;;;;;19.37;18.17;;;20.40;28.20;;;;;;5111035;28;20473;-75
2022/03/01 13:04:13;;;;;;;19.43;18.30;;;20.10;28.10;;;;;;5110910;28;20503;-75
2022/03/01 13:06:41;;;;;;;18.40;17.20;;;19.00;28.00;;;;;;5110833;28;20457;-75
2022/03/01 13:09:08;;;;;;;18.13;16.83;;;18.60;28.00;;;;;;5111007;28;20505;-75
2022/03/01 13:11:37;;;;;;;17.33;16.30;;;18.20;28.10;;;;;;5070624;28;20498;-75
2022/03/01 13:14:05;;;;;;;18.57;17.30;;;17.50;28.80;;;;;;5070644;28;20936;-74
2022/03/01 13:16:34;;;;;;;18.03;16.90;;;16.00;29.40;;;;;;5070200;28;20447;-73
2022/03/01 13:19:03;;;;;;;16.97;15.87;;;15.10;30.10;;;;;;5070268;28;20448;-75
2022/03/01 13:21:31;;;;;;;17.00;15.80;;;14.50;31.20;;;;;;5070167;28;20439;-75
2022/03/01 13:23:59;;;;;;;17.53;16.13;;;13.80;31.70;;;;;;5070068;28;20448;-74
2022/03/01 13:26:27;;;;;;;17.20;16.00;;;13.70;32.00;;;;;;5070046;28;20450;-74
2022/03/01 13:29:07;;;;;;;16.97;15.83;;;14.30;32.00;;;;;;5070006;28;20935;-74
2022/03/01 13:31:34;;;;;;;16.87;15.77;;;14.50;31.30;;;;;;5070239;28;20515;-74
2022/03/01 13:34:01;;;;;;;16.67;15.67;;;13.80;31.40;;;;;;5069743;28;20451;-74
2022/03/01 13:36:30;;;;;;;16.67;15.43;;;13.30;31.50;;;;;;5069806;28;20450;-76
2022/03/01 13:38:58;;;;;;;17.07;15.97;;;12.70;32.60;;;;;;5070098;28;20454;-77
2022/03/01 13:41:26;;;;;;;17.33;16.10;;;13.10;33.80;;;;;;5070134;28;20443;-75
2022/03/01 13:43:54;;;;;;;17.80;16.60;;;13.20;32.30;;;;;;5069895;28;20829;-75
2022/03/01 13:46:21;;;;;;;16.40;15.30;;;12.50;32.30;;;;;;5069973;28;20462;-75
2022/03/01 13:48:48;;;;;;;16.93;15.77;;;12.20;33.90;;;;;;5070277;28;20462;-75
2022/03/01 13:51:14;;;;;;;15.00;14.00;;;12.20;33.70;;;;;;5069829;28;20483;-74
2022/03/01 13:53:41;;;;;;;17.23;16.03;;;12.00;33.60;;;;;;5069805;28;20474;-74
2022/03/01 13:56:08;;;;;;;16.57;15.13;;;11.50;34.10;;;;;;5069704;28;20501;-74
2022/03/01 13:58:37;;;;;;;16.40;15.20;;;11.10;35.70;;;;;;5069923;28;20938;-76
2022/03/01 14:01:06;;;;;;;14.60;13.70;;;10.70;35.60;;;;;;5069946;28;20455;-75
2022/03/01 14:03:35;;;;;;;15.63;14.53;;;10.60;36.10;;;;;;5069992;28;20864;-76
2022/03/01 14:06:04;;;;;;;15.40;14.40;;;10.40;36.20;;;;;;5069863;28;20468;-75
2022/03/01 14:08:32;;;;;;;16.33;15.13;;;10.20;36.80;;;;;;5069704;28;20448;-75
2022/03/01 14:11:02;;;;;;;15.87;14.87;;;10.30;37.50;;;;;;5100510;28;21022;-75
2022/03/01 14:13:31;;;;;;;16.70;15.33;;;10.30;37.00;;;;;;5110091;28;20449;-75
2022/03/01 14:16:06;;;;;;;15.30;14.10;;;10.10;37.60;;;;;;5109971;28;20828;-75
2022/03/01 14:18:36;;;;;;;16.60;15.50;;;9.90;38.30;;;;;;5110402;28;20494;-75
2022/03/01 14:21:03;;;;;;;16.93;15.43;;;10.00;37.60;;;;;;5110341;28;20857;-73
2022/03/01 14:23:30;;;;;;;16.63;15.27;;;9.80;38.50;;;;;;5109946;28;20438;-75
2022/03/01 14:25:58;;;;;;;16.60;15.23;;;9.80;39.00;;;;;;5109747;28;20446;-73
2022/03/01 14:28:25;;;;;;;16.10;15.00;;;9.70;39.50;;;;;;5109883;28;20454;-74
2022/03/01 14:30:51;;;;;;;16.57;15.20;;;9.70;40.30;;;;;;5109886;28;20482;-75
2022/03/01 14:33:19;;;;;;;16.73;15.40;;;9.70;40.60;;;;;;5109983;28;20453;-76
2022/03/01 14:35:46;;;;;;;16.10;14.90;;;9.50;41.10;;;;;;5110766;28;20450;-76
2022/03/01 14:38:13;;;;;;;16.80;15.40;;;9.40;41.80;;;;;;5116727;28;20467;-75
2022/03/01 14:40:39;;;;;;;16.50;15.10;;;9.30;40.90;;;;;;5114642;28;20460;-75
2022/03/01 14:43:06;;;;;;;16.07;14.90;;;9.40;40.90;;;;;;5109879;28;20824;-74
2022/03/01 14:45:34;;;;;;;17.33;16.03;;;9.50;41.30;;;;;;5110069;28;20450;-75
2022/03/01 14:48:00;;;;;;;17.40;16.00;;;9.80;41.60;;;;;;5113632;28;20928;-73
2022/03/01 14:50:28;;;;;;;17.37;16.07;;;9.80;41.50;;;;;;5113380;28;20446;-76
2022/03/01 14:52:55;;;;;;;15.97;14.77;;;9.80;40.90;;;;;;5113724;28;20450;-72
2022/03/01 14:55:22;;;;;;;15.30;14.20;;;9.70;40.80;;;;;;5113711;28;20453;-73
2022/03/01 14:57:49;;;;;;;16.83;15.53;;;9.80;40.50;;;;;;5113907;28;20441;-75
2022/03/01 15:00:16;;;;;;;16.70;15.20;;;9.80;40.20;;;;;;5113605;28;20453;-75
2022/03/01 15:02:44;;;;;;;16.67;15.37;;;9.80;40.10;;;;;;5113298;28;20470;-74
2022/03/01 15:05:12;;;;;;;17.57;16.00;;;10.00;39.20;;;;;;5113080;28;20446;-74
2022/03/01 15:07:41;;;;;;;17.07;15.77;;;10.00;39.10;;;;;;5113038;28;20453;-76
2022/03/01 15:10:09;;;;;;;16.37;14.67;;;10.00;40.20;;;;;;5113020;28;20488;-76
2022/03/01 15:12:37;;;;;;;18.10;16.70;;;10.00;39.80;;;;;;5113173;28;20868;-76
2022/03/01 15:15:04;;;;;;;16.87;15.47;;;9.90;40.90;;;;;;5113328;28;20450;-75
2022/03/01 15:17:31;;;;;;;16.17;14.87;;;10.00;40.60;;;;;;5113226;28;20450;-75
2022/03/01 15:19:58;;;;;;;17.17;15.50;;;10.00;40.70;;;;;;5113165;28;20541;-76
2022/03/01 15:22:25;;;;;;;15.60;14.40;;;10.00;41.00;;;;;;5112942;28;20818;-75
2022/03/01 15:24:53;;;;;;;16.50;15.40;;;9.90;41.50;;;;;;5112897;28;20442;-75
2022/03/01 15:27:20;;;;;;;18.20;17.07;;;9.90;40.90;;;;;;5113021;28;20446;-74
2022/03/01 15:29:47;;;;;;;15.60;14.30;;;9.70;40.10;;;;;;5113238;28;20446;-75
2022/03/01 15:32:14;;;;;;;15.30;14.20;;;9.50;39.10;;;;;;5112709;28;21016;-75
2022/03/01 15:34:41;;;;;;;15.23;14.13;;;9.50;39.80;;;;;;5112764;28;20453;-75
2022/03/01 15:37:07;;;;;;;16.17;14.87;;;9.50;39.70;;;;;;5112680;28;20449;-75
2022/03/01 15:39:36;;;;;;;16.97;15.43;;;9.50;40.10;;;;;;5112940;28;20850;-76
2022/03/01 15:42:05;;;;;;;17.20;15.80;;;9.40;40.00;;;;;;5113008;28;20489;-76
2022/03/01 15:44:32;;;;;;;16.80;15.60;;;9.30;40.80;;;;;;5112879;28;20507;-75
2022/03/01 15:46:59;;;;;;;16.67;15.00;;;9.20;41.40;;;;;;5112423;28;20817;-76
2022/03/01 15:49:25;;;;;;;16.70;15.10;;;9.20;42.00;;;;;;5112368;28;20540;-76
2022/03/01 15:51:52;;;;;;;16.90;15.30;;;9.10;42.60;;;;;;5112485;28;20885;-75
2022/03/01 15:54:19;;;;;;;16.50;15.10;;;9.10;43.00;;;;;;5112844;28;20453;-76
2022/03/01 15:56:46;;;;;;;16.60;15.30;;;9.00;43.30;;;;;;5112443;28;20819;-76
2022/03/01 15:59:14;;;;;;;15.80;14.70;;;8.90;43.50;;;;;;5112262;28;20445;-76
2022/03/01 16:01:41;;;;;;;16.83;15.53;;;8.90;43.30;;;;;;5112134;28;20681;-76
2022/03/01 16:04:08;;;;;;;16.13;14.87;;;8.90;43.30;;;;;;5112180;28;20549;-75
2022/03/01 16:06:35;;;;;;;16.77;15.17;;;8.80;43.00;;;;;;5112478;28;20450;-75
2022/03/01 16:09:02;;;;;;;15.90;14.50;;;8.70;43.40;;;;;;5112521;28;20444;-75
2022/03/01 16:11:29;;;;;;;16.73;15.33;;;8.60;43.60;;;;;;5111971;28;20490;-75
2022/03/01 16:13:56;;;;;;;15.70;14.50;;;8.60;43.60;;;;;;5111954;28;20805;-76
2022/03/01 16:16:24;;;;;;;16.40;14.80;;;8.50;43.70;;;;;;5111839;28;20450;-75
2022/03/01 16:18:50;;;;;;;15.63;14.40;;;8.40;43.90;;;;;;5111945;28;20446;-76
2022/03/01 16:21:17;;;;;;;17.30;16.10;;;8.30;44.20;;;;;;5112122;28;20449;-74
2022/03/01 16:23:46;;;;;;;16.37;14.93;;;8.10;44.20;;;;;;5111688;28;20453;-75
2022/03/01 16:26:13;;;;;;;17.20;15.70;;;8.00;44.80;;;;;;5111777;28;20446;-75
2022/03/01 16:28:40;;;;;;;15.60;14.50;;;7.90;45.20;;;;;;5111729;28;20442;-75
2022/03/01 16:31:10;;;;;;;15.43;14.00;;;7.80;45.50;;;;;;5111708;28;20809;-74
2022/03/01 16:33:39;;;;;;;17.33;15.80;;;7.70;46.20;;;;;;5111787;28;20876;-75
2022/03/01 16:36:07;;;;;;;17.60;16.10;;;7.50;46.40;;;;;;5111185;28;20839;-74
2022/03/01 16:38:34;;;;;;;15.93;14.70;;;7.40;46.40;;;;;;5111800;28;20544;-75
2022/03/01 16:41:01;;;;;;;15.80;14.53;;;7.30;47.20;;;;;;5111659;28;20453;-75
2022/03/01 16:43:28;;;;;;;15.80;14.50;;;7.30;48.00;;;;;;5111136;28;20458;-74
2022/03/01 16:45:54;;;;;;;16.40;15.10;;;7.20;47.90;;;;;;5111246;28;20438;-75
2022/03/01 16:48:23;;;;;;;15.07;13.80;;;7.20;47.90;;;;;;5111176;28;20446;-74
2022/03/01 16:50:51;;;;;;;13.87;12.40;;;7.10;48.10;;;;;;5111316;28;20442;-74
2022/03/01 16:53:19;;;;;;;16.73;15.23;;;6.90;48.60;;;;;;5111567;27;20453;-74
2022/03/01 16:55:45;;;;;;;14.97;13.87;;;6.70;49.00;;;;;;5111169;28;21017;-74
2022/03/01 16:58:12;;;;;;;14.50;13.50;;;6.70;49.60;;;;;;5110956;28;20450;-74
2022/03/01 17:00:39;;;;;;;14.90;13.73;;;6.60;50.00;;;;;;5111094;28;20839;-74
2022/03/01 17:03:08;;;;;;;20.17;18.07;;;6.50;50.50;;;;;;5110989;28;20469;-74
2022/03/01 17:05:36;;;;;;;16.87;14.83;;;6.30;52.50;;;;;;5111412;28;20450;-74
2022/03/01 17:08:05;;;;;;;19.40;16.20;;;6.20;53.10;;;;;;5111425;28;20439;-74
2022/03/01 17:10:32;;;;;;;17.60;15.97;;;6.00;53.80;;;;;;5110064;28;20477;-74
2022/03/01 17:12:59;;;;;;;16.70;15.30;;;6.00;54.80;;;;;;5110625;28;20530;-75
2022/03/01 17:15:30;;;;;;;16.00;14.50;;;6.00;56.50;;;;;;5110759;28;20442;-74
2022/03/01 17:17:57;;;;;;;18.30;16.70;;;6.00;56.50;;;;;;5110648;28;20441;-75
2022/03/01 17:20:24;;;;;;;17.43;15.87;;;5.90;55.50;;;;;;5110308;28;20450;-74
2022/03/01 17:22:50;;;;;;;16.47;15.00;;;6.00;56.10;;;;;;5110745;28;20446;-75
2022/03/01 17:25:19;;;;;;;17.57;15.90;;;5.90;56.50;;;;;;5110935;28;20930;-74
2022/03/01 17:27:45;;;;;;;18.83;17.07;;;5.80;55.60;;;;;;5110686;28;20444;-74
2022/03/01 17:30:13;;;;;;;18.83;16.90;;;5.60;56.50;;;;;;5110597;28;20445;-75
2022/03/01 17:32:40;;;;;;;18.20;16.70;;;5.60;58.10;;;;;;5110477;28;20477;-75
2022/03/01 17:35:08;;;;;;;18.47;16.50;;;5.60;57.80;;;;;;5110711;28;20452;-74
2022/03/01 17:37:35;;;;;;;19.10;17.47;;;5.50;58.50;;;;;;5110817;28;20452;-74
2022/03/01 17:40:03;;;;;;;19.67;17.43;;;5.40;59.80;;;;;;5110704;28;20551;-74
2022/03/01 17:42:31;;;;;;;21.33;19.20;;;5.30;60.10;;;;;;5110494;28;20438;-75
2022/03/01 17:44:57;;;;;;;23.37;19.50;;;5.10;61.10;;;;;;5110276;28;20445;-74
2022/03/01 17:47:25;;;;;;;19.60;17.60;;;5.00;62.30;;;;;;5110238;28;20454;-75
2022/03/01 17:49:52;;;;;;;28.37;21.97;;;5.00;61.40;;;;;;5110377;28;20809;-74
2022/03/01 17:52:19;;;;;;;18.30;16.60;;;4.90;61.80;;;;;;5110459;28;20481;-75
2022/03/01 17:54:46;;;;;;;18.50;16.80;;;4.80;61.80;;;;;;5110494;28;20981;-74
2022/03/01 17:57:13;;;;;;;17.37;15.47;;;4.80;62.20;;;;;;5110073;28;20461;-75
